sensor_id;sensor_type;location;lat;lon;timestamp;pressure;altitude;pressure_sealevel;temperature;humidity
35307;BME280;21420;52.196;21.416;2023-01-24T00:00:43;102473.95;;;2.53;78.64
35307;BME280;21420;52.196;21.416;2023-01-24T00:03:10;102471.98;;;2.54;78.63
35307;BME280;21420;52.196;21.416;2023-01-24T00:05:40;102469.05;;;2.54;78.73
35307;BME280;21420;52.196;21.416;2023-01-24T00:08:08;102470.11;;;2.53;78.73
35307;BME280;21420;52.196;21.416;2023-01-24T00:10:35;102467.15;;;2.51;78.59
35307;BME280;21420;52.196;21.416;2023-01-24T00:13:03;102466.08;;;2.47;78.48
35307;BME280;21420;52.196;21.416;2023-01-24T00:15:30;102466.96;;;2.44;78.54
35307;BME280;21420;52.196;21.416;2023-01-24T00:17:57;102466.37;;;2.44;78.60
35307;BME280;21420;52.196;21.416;2023-01-24T00:20:25;102463.90;;;2.45;78.66
35307;BME280;21420;52.196;21.416;2023-01-24T00:22:52;102461.86;;;2.45;78.63
35307;BME280;21420;52.196;21.416;2023-01-24T00:25:19;102460.55;;;2.47;78.58
35307;BME280;21420;52.196;21.416;2023-01-24T00:27:46;102463.10;;;2.49;78.67
35307;BME280;21420;52.196;21.416;2023-01-24T00:30:13;102462.25;;;2.50;78.60
35307;BME280;21420;52.196;21.416;2023-01-24T00:32:40;102462.19;;;2.52;78.67
35307;BME280;21420;52.196;21.416;2023-01-24T00:35:08;102460.16;;;2.53;78.80
35307;BME280;21420;52.196;21.416;2023-01-24T00:37:35;102461.48;;;2.56;78.77
35307;BME280;21420;52.196;21.416;2023-01-24T00:40:02;102457.27;;;2.57;78.74
35307;BME280;21420;52.196;21.416;2023-01-24T00:42:29;102453.73;;;2.57;78.67
35307;BME280;21420;52.196;21.416;2023-01-24T00:44:56;102451.20;;;2.58;78.64
35307;BME280;21420;52.196;21.416;2023-01-24T00:47:25;102453.52;;;2.59;78.62
35307;BME280;21420;52.196;21.416;2023-01-24T00:49:52;102455.95;;;2.62;78.78
35307;BME280;21420;52.196;21.416;2023-01-24T00:52:19;102454.74;;;2.65;78.81
35307;BME280;21420;52.196;21.416;2023-01-24T00:54:47;102459.89;;;2.68;78.75
35307;BME280;21420;52.196;21.416;2023-01-24T00:57:14;102457.91;;;2.69;78.83
35307;BME280;21420;52.196;21.416;2023-01-24T00:59:41;102458.91;;;2.70;78.79
35307;BME280;21420;52.196;21.416;2023-01-24T01:02:09;102457.55;;;2.69;78.79
35307;BME280;21420;52.196;21.416;2023-01-24T01:04:36;102455.73;;;2.68;78.72
35307;BME280;21420;52.196;21.416;2023-01-24T01:07:03;102454.65;;;2.68;78.76
35307;BME280;21420;52.196;21.416;2023-01-24T01:09:30;102455.27;;;2.69;78.80
35307;BME280;21420;52.196;21.416;2023-01-24T01:11:57;102456.88;;;2.71;78.72
35307;BME280;21420;52.196;21.416;2023-01-24T01:14:24;102456.98;;;2.72;78.66
35307;BME280;21420;52.196;21.416;2023-01-24T01:16:52;102455.91;;;2.73;78.68
35307;BME280;21420;52.196;21.416;2023-01-24T01:19:20;102454.23;;;2.74;78.81
35307;BME280;21420;52.196;21.416;2023-01-24T01:21:47;102453.20;;;2.73;78.69
35307;BME280;21420;52.196;21.416;2023-01-24T01:24:16;102454.42;;;2.75;78.73
35307;BME280;21420;52.196;21.416;2023-01-24T01:26:45;102457.39;;;2.76;78.82
35307;BME280;21420;52.196;21.416;2023-01-24T01:29:12;102458.77;;;2.79;78.80
35307;BME280;21420;52.196;21.416;2023-01-24T01:31:38;102458.65;;;2.81;78.75
35307;BME280;21420;52.196;21.416;2023-01-24T01:34:07;102458.41;;;2.83;78.90
35307;BME280;21420;52.196;21.416;2023-01-24T01:36:35;102457.86;;;2.84;78.89
35307;BME280;21420;52.196;21.416;2023-01-24T01:39:02;102462.21;;;2.85;78.90
35307;BME280;21420;52.196;21.416;2023-01-24T01:41:29;102462.69;;;2.86;78.85
35307;BME280;21420;52.196;21.416;2023-01-24T01:43:56;102466.18;;;2.88;78.92
35307;BME280;21420;52.196;21.416;2023-01-24T01:46:47;102468.52;;;2.89;78.80
35307;BME280;21420;52.196;21.416;2023-01-24T01:49:24;102467.83;;;2.89;78.76
35307;BME280;21420;52.196;21.416;2023-01-24T01:51:56;102466.76;;;2.89;78.75
35307;BME280;21420;52.196;21.416;2023-01-24T01:54:30;102462.56;;;2.88;78.87
35307;BME280;21420;52.196;21.416;2023-01-24T01:57:03;102459.95;;;2.88;78.76
35307;BME280;21420;52.196;21.416;2023-01-24T01:59:35;102458.65;;;2.86;78.70
35307;BME280;21420;52.196;21.416;2023-01-24T02:02:06;102459.67;;;2.85;78.80
35307;BME280;21420;52.196;21.416;2023-01-24T02:04:36;102459.88;;;2.85;78.83
35307;BME280;21420;52.196;21.416;2023-01-24T02:09:37;102451.52;;;2.84;78.73
35307;BME280;21420;52.196;21.416;2023-01-24T02:12:13;102455.02;;;2.83;78.67
35307;BME280;21420;52.196;21.416;2023-01-24T02:14:43;102458.06;;;2.84;78.74
35307;BME280;21420;52.196;21.416;2023-01-24T02:17:31;102455.47;;;2.82;78.80
35307;BME280;21420;52.196;21.416;2023-01-24T02:23:26;102449.14;;;2.79;78.75
35307;BME280;21420;52.196;21.416;2023-01-24T02:26:16;102447.68;;;2.80;78.75
35307;BME280;21420;52.196;21.416;2023-01-24T02:28:51;102445.77;;;2.79;78.78
35307;BME280;21420;52.196;21.416;2023-01-24T02:31:19;102442.53;;;2.77;78.77
35307;BME280;21420;52.196;21.416;2023-01-24T02:33:46;102441.61;;;2.75;78.71
35307;BME280;21420;52.196;21.416;2023-01-24T02:36:32;102440.36;;;2.72;78.65
35307;BME280;21420;52.196;21.416;2023-01-24T02:41:34;102436.02;;;2.70;78.76
35307;BME280;21420;52.196;21.416;2023-01-24T02:44:09;102437.23;;;2.70;78.73
35307;BME280;21420;52.196;21.416;2023-01-24T02:46:43;102436.77;;;2.69;78.76
35307;BME280;21420;52.196;21.416;2023-01-24T02:49:11;102436.38;;;2.68;78.79
35307;BME280;21420;52.196;21.416;2023-01-24T02:51:38;102434.30;;;2.68;78.62
35307;BME280;21420;52.196;21.416;2023-01-24T02:54:24;102435.27;;;2.64;78.66
35307;BME280;21420;52.196;21.416;2023-01-24T02:56:51;102436.98;;;2.62;78.57
35307;BME280;21420;52.196;21.416;2023-01-24T02:59:36;102436.75;;;2.62;78.72
35307;BME280;21420;52.196;21.416;2023-01-24T03:02:03;102436.38;;;2.65;78.84
35307;BME280;21420;52.196;21.416;2023-01-24T03:04:30;102438.08;;;2.65;78.70
35307;BME280;21420;52.196;21.416;2023-01-24T03:06:57;102437.94;;;2.64;78.78
35307;BME280;21420;52.196;21.416;2023-01-24T03:09:24;102439.66;;;2.63;78.77
35307;BME280;21420;52.196;21.416;2023-01-24T03:12:05;102437.66;;;2.61;78.73
35307;BME280;21420;52.196;21.416;2023-01-24T03:14:55;102442.10;;;2.62;78.90
35307;BME280;21420;52.196;21.416;2023-01-24T03:17:41;102440.14;;;2.61;78.67
35307;BME280;21420;52.196;21.416;2023-01-24T03:20:27;102440.45;;;2.61;78.68
